TimeCST,TemperatureF,Dew PointF,Humidity,Sea Level PressureIn,VisibilityMPH,Wind Direction,Wind SpeedMPH,Gust SpeedMPH,PrecipitationIn,Events,Conditions,WindDirDegrees,DateUTC
12:15 AM,39.2,33.8,81,30.29,10.0,NNE,36.8,-,N/A,,Unknown,30,2014-01-29 06:15:00
12:35 AM,39.2,32.0,75,30.28,10.0,NNE,34.5,-,N/A,,Unknown,30,2014-01-29 06:35:00
12:55 AM,39.2,32.0,75,30.28,10.0,NNE,33.4,40.3,N/A,,Unknown,30,2014-01-29 06:55:00
1:15 AM,39.2,32.0,75,30.29,10.0,NE,32.2,40.3,N/A,,Unknown,40,2014-01-29 07:15:00
1:35 AM,39.2,32.0,75,30.28,10.0,NNE,35.7,-,N/A,,Unknown,30,2014-01-29 07:35:00
1:55 AM,39.2,32.0,75,30.29,10.0,NE,34.5,-,N/A,,Unknown,40,2014-01-29 07:55:00
2:15 AM,39.2,32.0,75,30.29,10.0,NE,34.5,-,N/A,,Unknown,40,2014-01-29 08:15:00
2:35 AM,39.2,28.4,65,30.30,10.0,NE,32.2,40.3,N/A,,Unknown,40,2014-01-29 08:35:00
2:55 AM,39.2,30.2,70,30.27,8.0,NNE,33.4,40.3,N/A,,Unknown,30,2014-01-29 08:55:00
3:15 AM,39.2,28.4,65,30.29,10.0,NE,34.5,41.4,N/A,,Unknown,40,2014-01-29 09:15:00
3:35 AM,39.2,28.4,65,30.29,10.0,NE,34.5,41.4,N/A,,Unknown,40,2014-01-29 09:35:00
3:55 AM,39.2,28.4,65,30.28,10.0,NNE,35.7,-,N/A,,Unknown,30,2014-01-29 09:55:00
4:15 AM,39.2,28.4,65,30.29,10.0,NNE,34.5,42.6,N/A,,Unknown,30,2014-01-29 10:15:00
4:35 AM,39.2,28.4,65,30.30,10.0,NNE,33.4,-,N/A,,Unknown,30,2014-01-29 10:35:00
4:55 AM,39.2,28.4,65,30.30,10.0,NNE,32.2,39.1,N/A,,Unknown,30,2014-01-29 10:55:00
5:15 AM,39.2,28.4,65,30.30,10.0,NNE,33.4,44.9,N/A,,Unknown,30,2014-01-29 11:15:00
5:35 AM,39.2,28.4,65,30.31,-9999.0,NE,34.5,-,N/A,,Unknown,40,2014-01-29 11:35:00
5:55 AM,39.2,28.4,65,30.34,10.0,NE,31.1,39.1,N/A,,Unknown,40,2014-01-29 11:55:00
6:15 AM,39.2,28.4,65,30.37,10.0,NNE,31.1,-,N/A,,Unknown,30,2014-01-29 12:15:00
6:35 AM,39.2,28.4,65,30.38,10.0,NE,28.8,-,N/A,,Unknown,40,2014-01-29 12:35:00
6:55 AM,39.2,26.6,61,30.35,10.0,NE,31.1,38.0,N/A,,Unknown,40,2014-01-29 12:55:00
7:15 AM,39.2,28.4,65,30.34,9.0,NE,32.2,-,N/A,,Unknown,50,2014-01-29 13:15:00
7:35 AM,39.2,26.6,61,30.36,9.0,NE,32.2,39.1,N/A,,Unknown,40,2014-01-29 13:35:00
7:55 AM,39.2,26.6,61,30.36,9.0,NE,31.1,38.0,N/A,,Unknown,50,2014-01-29 13:55:00
8:15 AM,39.2,26.6,61,30.37,9.0,NE,28.8,35.7,N/A,,Unknown,50,2014-01-29 14:15:00
8:35 AM,41.0,28.4,61,30.38,10.0,NE,26.5,36.8,N/A,,Unknown,50,2014-01-29 14:35:00
8:55 AM,41.0,26.6,57,30.39,10.0,NE,29.9,36.8,N/A,,Unknown,50,2014-01-29 14:55:00
9:15 AM,41.0,26.6,57,30.41,10.0,NE,27.6,34.5,N/A,,Unknown,50,2014-01-29 15:15:00
9:35 AM,41.0,26.6,57,30.42,10.0,NE,27.6,-,N/A,,Unknown,50,2014-01-29 15:35:00
9:55 AM,41.0,23.0,49,30.42,10.0,NE,28.8,34.5,N/A,,Unknown,40,2014-01-29 15:55:00
10:15 AM,41.0,23.0,49,30.42,10.0,NE,26.5,35.7,N/A,,Unknown,50,2014-01-29 16:15:00
10:35 AM,41.0,24.8,53,30.42,10.0,NE,27.6,-,N/A,,Unknown,40,2014-01-29 16:35:00
10:55 AM,41.0,24.8,53,30.43,10.0,ENE,27.6,-,N/A,,Unknown,60,2014-01-29 16:55:00
11:15 AM,41.0,24.8,53,30.42,9.0,NE,26.5,33.4,N/A,,Unknown,40,2014-01-29 17:15:00
11:35 AM,41.0,26.6,57,30.42,10.0,NE,27.6,-,N/A,,Unknown,40,2014-01-29 17:35:00
11:55 AM,41.0,26.6,57,30.42,10.0,NE,24.2,29.9,N/A,,Unknown,40,2014-01-29 17:55:00
12:15 PM,41.0,26.6,57,30.40,10.0,NE,26.5,-,N/A,,Unknown,40,2014-01-29 18:15:00
12:35 PM,41.0,24.8,53,30.37,10.0,NE,27.6,-,N/A,,Unknown,50,2014-01-29 18:35:00
12:55 PM,41.0,24.8,53,30.36,10.0,NE,25.3,35.7,N/A,,Unknown,40,2014-01-29 18:55:00
1:15 PM,41.0,24.8,53,30.34,10.0,NE,28.8,34.5,N/A,,Unknown,40,2014-01-29 19:15:00
1:35 PM,41.0,26.6,57,30.33,10.0,NE,28.8,35.7,N/A,,Unknown,40,2014-01-29 19:35:00
1:55 PM,41.0,24.8,53,30.33,10.0,NE,27.6,35.7,N/A,,Unknown,40,2014-01-29 19:55:00
2:15 PM,41.0,26.6,57,30.32,10.0,NE,28.8,35.7,N/A,,Unknown,40,2014-01-29 20:15:00
2:35 PM,41.0,28.4,61,30.34,10.0,NNE,27.6,-,N/A,,Unknown,30,2014-01-29 20:35:00
2:55 PM,41.0,30.2,65,30.31,10.0,NNE,31.1,36.8,N/A,,Unknown,20,2014-01-29 20:55:00
3:15 PM,41.0,26.6,57,30.31,10.0,NNE,27.6,-,N/A,,Unknown,30,2014-01-29 21:15:00
3:35 PM,41.0,26.6,57,30.31,10.0,NE,28.8,-,N/A,,Unknown,40,2014-01-29 21:35:00
3:55 PM,42.8,26.6,53,30.32,10.0,NNE,27.6,35.7,N/A,,Unknown,30,2014-01-29 21:55:00
4:15 PM,42.8,26.6,53,30.32,10.0,NNE,26.5,-,N/A,,Unknown,20,2014-01-29 22:15:00
4:35 PM,42.8,24.8,49,30.32,10.0,NNE,25.3,-,N/A,,Unknown,30,2014-01-29 22:35:00
4:55 PM,42.8,24.8,49,30.32,10.0,NNE,21.9,31.1,N/A,,Unknown,20,2014-01-29 22:55:00
5:15 PM,42.8,21.2,42,30.32,10.0,NNE,24.2,29.9,N/A,,Unknown,30,2014-01-29 23:15:00
5:35 PM,42.8,23.0,46,30.32,10.0,NNE,21.9,31.1,N/A,,Unknown,30,2014-01-29 23:35:00
5:55 PM,42.8,21.2,42,30.33,10.0,NE,21.9,28.8,N/A,,Unknown,40,2014-01-29 23:55:00
6:15 PM,42.8,23.0,46,30.33,10.0,NNE,23.0,-,N/A,,Unknown,30,2014-01-30 00:15:00
6:35 PM,42.8,23.0,46,30.33,10.0,NE,20.7,27.6,N/A,,Unknown,40,2014-01-30 00:35:00
6:55 PM,42.8,24.8,49,30.33,10.0,NE,24.2,-,N/A,,Unknown,40,2014-01-30 00:55:00
7:15 PM,41.0,24.8,53,30.33,10.0,NE,21.9,27.6,N/A,,Unknown,40,2014-01-30 01:15:00
7:35 PM,41.0,23.0,49,30.33,10.0,NE,21.9,-,N/A,,Unknown,40,2014-01-30 01:35:00
7:55 PM,42.8,24.8,49,30.33,10.0,NE,20.7,27.6,N/A,,Unknown,50,2014-01-30 01:55:00
8:15 PM,42.8,26.6,53,30.34,10.0,NE,24.2,-,N/A,,Unknown,40,2014-01-30 02:15:00
8:35 PM,42.8,26.6,53,30.33,10.0,NE,24.2,-,N/A,,Unknown,50,2014-01-30 02:35:00
8:55 PM,42.8,26.6,53,30.34,10.0,NE,19.6,27.6,N/A,,Unknown,50,2014-01-30 02:55:00
9:15 PM,42.8,26.6,53,30.34,10.0,NE,19.6,26.5,N/A,,Unknown,50,2014-01-30 03:15:00
9:35 PM,42.8,26.6,53,30.33,10.0,NE,18.4,27.6,N/A,,Unknown,50,2014-01-30 03:35:00
9:55 PM,42.8,26.6,53,30.32,10.0,NE,23.0,-,N/A,,Unknown,40,2014-01-30 03:55:00
10:15 PM,42.8,26.6,53,30.33,10.0,NE,17.3,26.5,N/A,,Unknown,50,2014-01-30 04:15:00
10:35 PM,42.8,26.6,53,30.33,10.0,NE,20.7,26.5,N/A,,Unknown,50,2014-01-30 04:35:00
10:55 PM,42.8,26.6,53,30.32,10.0,ENE,19.6,25.3,N/A,,Unknown,70,2014-01-30 04:55:00
11:15 PM,42.8,28.4,57,30.32,10.0,ENE,16.1,25.3,N/A,,Unknown,70,2014-01-30 05:15:00
11:35 PM,42.8,28.4,57,30.31,10.0,ENE,18.4,24.2,N/A,,Unknown,70,2014-01-30 05:35:00
11:55 PM,42.8,28.4,57,30.31,10.0,ENE,17.3,-,N/A,,Unknown,60,2014-01-30 05:55:00